Time;durP1;ratioP1;P1;durP2;ratioP2;P2;SDS_P1;SDS_P2;PMS_P1;PMS_P2;Temp;Humidity;BMP_temperature;BMP_pressure;BME280_temperature;BME280_humidity;BME280_pressure;Samples;Min_cycle;Max_cycle;Signal;HPM_P1;HPM_P2
2021/10/12 00:00:30;;;;;;;2.17;1.10;;;;;;;;;;4989588;28;20200;-76
2021/10/12 00:02:57;;;;;;;4.47;1.40;;;;;;;;;;4976853;28;20202;-78
2021/10/12 00:05:24;;;;;;;4.40;1.13;;;;;;;;;;4986577;28;20649;-78
2021/10/12 00:07:52;;;;;;;4.70;1.40;;;;;;;;;;4984923;28;20641;-78
2021/10/12 00:10:19;;;;;;;3.08;1.48;;;;;;;;;;4991930;28;20228;-79
2021/10/12 00:12:47;;;;;;;5.68;1.65;;;;;;;;;;4987045;28;20198;-78
2021/10/12 00:15:14;;;;;;;3.25;1.40;;;;;;;;;;4992067;28;20639;-78
2021/10/12 00:17:41;;;;;;;2.50;2.30;;;;;;;;;;4988969;28;20206;-78
2021/10/12 00:20:09;;;;;;;1.30;1.20;;;;;;;;;;4985739;28;20198;-78
2021/10/12 00:22:36;;;;;;;2.45;1.20;;;;;;;;;;4980188;28;20676;-77
2021/10/12 00:25:04;;;;;;;1.20;1.00;;;;;;;;;;4991157;28;20206;-78
2021/10/12 00:27:31;;;;;;;2.45;1.38;;;;;;;;;;4984431;28;20208;-77
2021/10/12 00:29:59;;;;;;;1.75;1.15;;;;;;;;;;4988600;28;20647;-77
2021/10/12 00:32:26;;;;;;;2.72;1.55;;;;;;;;;;4989368;28;20197;-78
2021/10/12 00:34:53;;;;;;;2.10;1.27;;;;;;;;;;4986600;28;20289;-79
2021/10/12 00:37:21;;;;;;;2.55;1.55;;;;;;;;;;4989384;28;20221;-78
2021/10/12 00:39:48;;;;;;;1.45;1.15;;;;;;;;;;4990876;28;20565;-79
2021/10/12 00:42:15;;;;;;;1.38;1.10;;;;;;;;;;4984382;28;20668;-78
2021/10/12 00:44:42;;;;;;;6.40;1.60;;;;;;;;;;4991937;28;20557;-78
2021/10/12 00:47:10;;;;;;;2.58;1.10;;;;;;;;;;4987465;28;20210;-78
2021/10/12 00:49:37;;;;;;;2.20;1.30;;;;;;;;;;4988225;28;20651;-78
2021/10/12 00:52:05;;;;;;;2.30;1.38;;;;;;;;;;4991374;28;20680;-78
2021/10/12 00:54:32;;;;;;;2.55;1.15;;;;;;;;;;4988792;28;20198;-79
2021/10/12 00:56:59;;;;;;;2.42;1.30;;;;;;;;;;4988854;28;20209;-79
2021/10/12 00:59:26;;;;;;;7.20;2.22;;;;;;;;;;4990823;28;20197;-78
2021/10/12 01:01:53;;;;;;;3.60;1.13;;;;;;;;;;4989948;28;20286;-78
2021/10/12 01:04:21;;;;;;;2.60;1.17;;;;;;;;;;4982105;28;20665;-79
2021/10/12 01:06:48;;;;;;;2.20;1.50;;;;;;;;;;4972446;28;20285;-78
2021/10/12 01:09:15;;;;;;;1.80;1.40;;;;;;;;;;4979893;28;20241;-78
2021/10/12 01:11:43;;;;;;;1.90;1.15;;;;;;;;;;4992397;28;20209;-77
2021/10/12 01:14:10;;;;;;;3.30;1.10;;;;;;;;;;4994115;28;20201;-79
2021/10/12 01:16:37;;;;;;;3.35;1.23;;;;;;;;;;4986055;28;20665;-79
2021/10/12 01:19:05;;;;;;;2.95;1.50;;;;;;;;;;4994433;28;20255;-79
2021/10/12 01:21:39;;;;;;;4.53;1.50;;;;;;;;;;4994598;28;20193;-79
2021/10/12 01:24:06;;;;;;;2.28;1.30;;;;;;;;;;4994328;28;20200;-79
2021/10/12 01:26:34;;;;;;;3.15;1.17;;;;;;;;;;4995201;28;20205;-77
2021/10/12 01:29:01;;;;;;;3.78;1.30;;;;;;;;;;4991820;28;20568;-78
2021/10/12 01:31:29;;;;;;;3.70;1.20;;;;;;;;;;4993819;28;20221;-78
2021/10/12 01:33:56;;;;;;;3.45;1.45;;;;;;;;;;4986144;28;20245;-79
2021/10/12 01:36:24;;;;;;;2.30;1.42;;;;;;;;;;4975437;28;20206;-78
2021/10/12 01:38:52;;;;;;;2.30;1.40;;;;;;;;;;4984537;28;20201;-78
2021/10/12 01:41:20;;;;;;;2.58;1.35;;;;;;;;;;4991416;28;20197;-79
2021/10/12 01:43:47;;;;;;;1.80;1.35;;;;;;;;;;4985611;28;20253;-79
2021/10/12 01:46:14;;;;;;;1.98;1.52;;;;;;;;;;4991826;28;20202;-78
2021/10/12 01:48:41;;;;;;;2.95;1.30;;;;;;;;;;4990949;28;20216;-77
2021/10/12 01:51:08;;;;;;;1.30;1.20;;;;;;;;;;4990355;28;20241;-78
2021/10/12 01:53:35;;;;;;;2.92;1.65;;;;;;;;;;4986403;28;20216;-79
2021/10/12 01:56:04;;;;;;;2.10;0.90;;;;;;;;;;4993047;28;20661;-77
2021/10/12 01:58:31;;;;;;;3.65;2.13;;;;;;;;;;4992644;28;20201;-77
2021/10/12 02:00:58;;;;;;;8.60;1.70;;;;;;;;;;4990629;28;20199;-77
2021/10/12 02:03:25;;;;;;;2.25;1.90;;;;;;;;;;4984278;28;20216;-78
2021/10/12 02:05:52;;;;;;;2.58;1.45;;;;;;;;;;4999750;28;20718;-78
2021/10/12 02:08:19;;;;;;;2.08;1.58;;;;;;;;;;4986384;28;20256;-78
2021/10/12 02:10:47;;;;;;;6.15;1.60;;;;;;;;;;4992816;28;20225;-77
2021/10/12 02:13:15;;;;;;;2.03;1.50;;;;;;;;;;4978561;28;20202;-78
2021/10/12 02:15:42;;;;;;;2.85;1.75;;;;;;;;;;4975260;28;20201;-78
2021/10/12 02:18:11;;;;;;;3.58;1.65;;;;;;;;;;4985231;28;20202;-78
2021/10/12 02:20:38;;;;;;;2.45;1.50;;;;;;;;;;4981220;28;20642;-78
2021/10/12 02:23:05;;;;;;;2.78;1.65;;;;;;;;;;4987126;28;20197;-78
2021/10/12 02:25:32;;;;;;;1.70;1.60;;;;;;;;;;4984035;28;20688;-77
2021/10/12 02:27:59;;;;;;;3.55;1.52;;;;;;;;;;4989734;28;20258;-78
2021/10/12 02:30:27;;;;;;;1.80;1.50;;;;;;;;;;4992356;28;20343;-78
2021/10/12 02:32:54;;;;;;;3.72;1.63;;;;;;;;;;4991505;28;20201;-78
2021/10/12 02:35:21;;;;;;;2.45;1.75;;;;;;;;;;4993682;28;20194;-78
2021/10/12 02:37:48;;;;;;;1.50;1.23;;;;;;;;;;4989421;28;20288;-77
2021/10/12 02:40:15;;;;;;;2.03;1.58;;;;;;;;;;4993050;28;20759;-78
2021/10/12 02:42:42;;;;;;;2.35;1.60;;;;;;;;;;4992541;28;20202;-77
2021/10/12 02:45:10;;;;;;;4.18;1.70;;;;;;;;;;4984478;28;20656;-78
2021/10/12 02:47:38;;;;;;;2.42;1.55;;;;;;;;;;4986315;28;20248;-78
2021/10/12 02:50:06;;;;;;;3.15;1.75;;;;;;;;;;4991512;28;20206;-78
2021/10/12 02:52:33;;;;;;;3.30;2.00;;;;;;;;;;4993165;28;20206;-78
2021/10/12 02:55:01;;;;;;;2.20;1.80;;;;;;;;;;4981360;28;20253;-78
2021/10/12 02:57:29;;;;;;;2.22;2.03;;;;;;;;;;4992758;28;20201;-74
2021/10/12 02:59:56;;;;;;;2.55;2.17;;;;;;;;;;4991442;28;20681;-74
2021/10/12 03:02:23;;;;;;;4.18;2.10;;;;;;;;;;4987185;28;20205;-74
2021/10/12 03:04:51;;;;;;;2.83;2.63;;;;;;;;;;4984983;28;20325;-74
2021/10/12 03:07:19;;;;;;;3.47;2.15;;;;;;;;;;4991151;28;20197;-74
2021/10/12 03:09:46;;;;;;;2.70;2.35;;;;;;;;;;4991214;28;20229;-74
2021/10/12 03:12:13;;;;;;;4.10;2.40;;;;;;;;;;4990907;28;20193;-75
2021/10/12 03:14:41;;;;;;;1.77;1.65;;;;;;;;;;4992884;28;20201;-74
2021/10/12 03:17:08;;;;;;;4.20;1.88;;;;;;;;;;4980569;28;20205;-74
2021/10/12 03:19:35;;;;;;;2.90;1.88;;;;;;;;;;4992831;28;20673;-75
2021/10/12 03:22:09;;;;;;;2.30;1.58;;;;;;;;;;4989955;28;20543;-75
2021/10/12 03:24:36;;;;;;;2.15;1.98;;;;;;;;;;4986992;28;20198;-75
2021/10/12 03:27:04;;;;;;;4.75;2.35;;;;;;;;;;4979921;28;20197;-74
2021/10/12 03:29:31;;;;;;;3.75;1.77;;;;;;;;;;4983346;28;20558;-74
2021/10/12 03:31:59;;;;;;;4.40;2.20;;;;;;;;;;4990875;28;20197;-76
2021/10/12 03:34:26;;;;;;;2.28;1.50;;;;;;;;;;4973273;28;20725;-75
2021/10/12 03:36:53;;;;;;;1.80;1.70;;;;;;;;;;4987596;28;20675;-77
2021/10/12 03:39:22;;;;;;;2.20;1.70;;;;;;;;;;4989238;28;20197;-75
2021/10/12 03:41:50;;;;;;;4.90;2.00;;;;;;;;;;4984231;28;20197;-75
2021/10/12 03:44:17;;;;;;;2.25;2.05;;;;;;;;;;4988231;28;20625;-74
2021/10/12 03:46:44;;;;;;;2.28;1.60;;;;;;;;;;4991480;28;20695;-74
2021/10/12 03:49:11;;;;;;;3.17;1.98;;;;;;;;;;4987848;28;20206;-75
2021/10/12 03:51:40;;;;;;;2.88;1.65;;;;;;;;;;4991578;28;20624;-76
2021/10/12 03:54:07;;;;;;;3.03;1.95;;;;;;;;;;4988706;28;20197;-74
2021/10/12 03:56:35;;;;;;;3.92;2.55;;;;;;;;;;4990872;28;20675;-75
2021/10/12 03:59:02;;;;;;;1.50;1.35;;;;;;;;;;4989524;28;20202;-76
2021/10/12 04:01:29;;;;;;;3.45;1.50;;;;;;;;;;4986312;28;20201;-74
2021/10/12 04:03:57;;;;;;;2.60;1.75;;;;;;;;;;4990586;28;20669;-76
2021/10/12 04:06:24;;;;;;;4.85;2.25;;;;;;;;;;4990599;28;20660;-74
2021/10/12 04:08:51;;;;;;;2.95;1.98;;;;;;;;;;4983726;28;20594;-74
2021/10/12 04:11:18;;;;;;;4.35;2.20;;;;;;;;;;4990048;28;20217;-73
2021/10/12 04:13:46;;;;;;;5.30;1.67;;;;;;;;;;4973396;28;20604;-74
2021/10/12 04:16:13;;;;;;;2.42;1.75;;;;;;;;;;4979690;28;20209;-74
2021/10/12 04:18:40;;;;;;;5.45;1.83;;;;;;;;;;4987988;28;20206;-73
2021/10/12 04:21:07;;;;;;;2.35;1.88;;;;;;;;;;4989865;28;20565;-74
2021/10/12 04:23:35;;;;;;;3.05;2.08;;;;;;;;;;4990140;28;20601;-73
2021/10/12 04:26:06;;;;;;;3.65;2.28;;;;;;;;;;4991817;28;20720;-75
2021/10/12 04:28:33;;;;;;;3.25;2.40;;;;;;;;;;4989544;28;20206;-75
2021/10/12 04:31:01;;;;;;;5.95;3.03;;;;;;;;;;4988397;28;20221;-74
2021/10/12 04:33:28;;;;;;;2.63;2.42;;;;;;;;;;4989998;28;20561;-74
2021/10/12 04:35:55;;;;;;;4.38;3.47;;;;;;;;;;4984775;28;20792;-73
2021/10/12 04:38:22;;;;;;;5.85;2.33;;;;;;;;;;4991032;28;20237;-74
2021/10/12 04:40:49;;;;;;;4.00;3.40;;;;;;;;;;4991269;28;20202;-73
2021/10/12 04:43:17;;;;;;;2.95;2.40;;;;;;;;;;4989759;28;20194;-73
2021/10/12 04:45:44;;;;;;;6.03;4.97;;;;;;;;;;4989815;28;20202;-73
2021/10/12 04:48:12;;;;;;;2.90;2.60;;;;;;;;;;4978980;28;20661;-73
2021/10/12 04:50:39;;;;;;;6.20;3.88;;;;;;;;;;4990308;28;20581;-73
2021/10/12 04:53:06;;;;;;;6.25;3.90;;;;;;;;;;4986725;28;20253;-74
2021/10/12 04:55:35;;;;;;;2.97;2.58;;;;;;;;;;4976196;28;20210;-75
2021/10/12 04:58:02;;;;;;;5.22;3.92;;;;;;;;;;4991870;28;20612;-73
2021/10/12 05:00:29;;;;;;;3.67;3.03;;;;;;;;;;4993722;28;20684;-73
2021/10/12 05:02:56;;;;;;;5.20;3.95;;;;;;;;;;4994057;28;20217;-74
2021/10/12 05:05:24;;;;;;;6.70;3.63;;;;;;;;;;4994829;28;20198;-73
2021/10/12 05:07:51;;;;;;;4.35;2.85;;;;;;;;;;4994087;28;20205;-73
2021/10/12 05:10:18;;;;;;;3.83;3.15;;;;;;;;;;4993158;28;20276;-73
2021/10/12 05:12:45;;;;;;;7.30;3.95;;;;;;;;;;4975606;28;20690;-73
2021/10/12 05:15:19;;;;;;;5.70;3.10;;;;;;;;;;4980094;28;20233;-74
2021/10/12 05:17:47;;;;;;;4.80;4.13;;;;;;;;;;4990511;28;20295;-74
2021/10/12 05:20:14;;;;;;;5.88;3.65;;;;;;;;;;4985143;28;20664;-73
2021/10/12 05:22:43;;;;;;;7.05;4.03;;;;;;;;;;4988329;28;20209;-73
2021/10/12 05:25:10;;;;;;;4.70;3.60;;;;;;;;;;4992537;28;20214;-76
2021/10/12 05:27:37;;;;;;;4.43;3.80;;;;;;;;;;4991277;28;20568;-73
2021/10/12 05:30:05;;;;;;;3.72;3.33;;;;;;;;;;4992287;28;20217;-74
2021/10/12 05:32:32;;;;;;;4.68;4.28;;;;;;;;;;4986304;28;20205;-72
2021/10/12 05:34:59;;;;;;;4.25;3.25;;;;;;;;;;4981311;28;20209;-73
2021/10/12 05:37:26;;;;;;;5.05;4.43;;;;;;;;;;4986823;28;20201;-72
2021/10/12 05:39:54;;;;;;;5.50;4.38;;;;;;;;;;4993424;28;20202;-73
2021/10/12 05:42:21;;;;;;;5.38;4.25;;;;;;;;;;4990210;28;20558;-74
2021/10/12 05:44:48;;;;;;;7.20;4.47;;;;;;;;;;4991582;28;20201;-74
2021/10/12 05:47:15;;;;;;;8.27;3.80;;;;;;;;;;4974926;28;20209;-73
2021/10/12 05:49:42;;;;;;;5.68;3.80;;;;;;;;;;4984631;28;20660;-75
2021/10/12 05:52:13;;;;;;;5.10;4.50;;;;;;;;;;4989905;28;20217;-72
2021/10/12 05:54:47;;;;;;;4.72;3.53;;;;;;;;;;4992279;28;20201;-75
2021/10/12 05:57:23;;;;;;;6.40;4.43;;;;;;;;;;4991592;28;20553;-74
2021/10/12 05:59:50;;;;;;;5.53;4.80;;;;;;;;;;4984931;28;20225;-74
2021/10/12 06:02:17;;;;;;;6.45;4.93;;;;;;;;;;4992907;28;20256;-74
2021/10/12 06:04:44;;;;;;;4.55;3.67;;;;;;;;;;4993113;28;20652;-73
2021/10/12 06:07:11;;;;;;;4.40;4.00;;;;;;;;;;4984447;28;20205;-76
2021/10/12 06:09:38;;;;;;;6.47;4.57;;;;;;;;;;4990701;28;20205;-74
2021/10/12 06:12:05;;;;;;;5.43;5.03;;;;;;;;;;4991417;28;20225;-75
2021/10/12 06:14:33;;;;;;;5.07;4.68;;;;;;;;;;4992405;28;20206;-75
2021/10/12 06:17:00;;;;;;;8.40;5.50;;;;;;;;;;4992855;28;20201;-74
2021/10/12 06:19:27;;;;;;;6.90;6.22;;;;;;;;;;4992155;28;20252;-75
2021/10/12 06:21:55;;;;;;;6.47;3.95;;;;;;;;;;4992714;28;20186;-75
2021/10/12 06:24:22;;;;;;;6.63;4.93;;;;;;;;;;4990139;28;20217;-74
2021/10/12 06:26:49;;;;;;;7.78;5.20;;;;;;;;;;4974608;28;20198;-74
2021/10/12 06:29:16;;;;;;;7.60;6.20;;;;;;;;;;4984689;28;20206;-74
2021/10/12 06:31:44;;;;;;;4.80;4.25;;;;;;;;;;4990761;28;20232;-74
2021/10/12 06:34:11;;;;;;;8.50;5.97;;;;;;;;;;4984155;28;20238;-75
2021/10/12 06:36:41;;;;;;;8.00;6.80;;;;;;;;;;4974219;28;20209;-75
2021/10/12 06:39:08;;;;;;;6.03;5.43;;;;;;;;;;4982536;28;20201;-74
2021/10/12 06:41:35;;;;;;;6.32;5.65;;;;;;;;;;4993758;28;20197;-75
2021/10/12 06:44:02;;;;;;;9.43;5.50;;;;;;;;;;4993251;28;20252;-74
2021/10/12 06:46:29;;;;;;;7.75;5.85;;;;;;;;;;4992703;28;20193;-75
2021/10/12 06:48:58;;;;;;;6.80;6.20;;;;;;;;;;4991850;28;20650;-75
2021/10/12 06:51:25;;;;;;;7.47;6.40;;;;;;;;;;4992444;28;20268;-74
2021/10/12 06:53:52;;;;;;;6.30;5.53;;;;;;;;;;4991346;28;20224;-76
2021/10/12 06:56:19;;;;;;;5.75;4.70;;;;;;;;;;4993067;28;20209;-74
2021/10/12 06:58:46;;;;;;;6.50;5.70;;;;;;;;;;4991098;28;20673;-75
2021/10/12 07:01:13;;;;;;;7.70;6.25;;;;;;;;;;4991942;28;20200;-75
2021/10/12 07:03:40;;;;;;;5.40;4.90;;;;;;;;;;4991982;28;20194;-76
2021/10/12 07:06:08;;;;;;;6.93;6.13;;;;;;;;;;4992138;28;20596;-74
2021/10/12 07:08:35;;;;;;;6.70;6.10;;;;;;;;;;4987533;28;20209;-74
2021/10/12 07:11:02;;;;;;;7.13;6.40;;;;;;;;;;4992145;28;20233;-75
2021/10/12 07:13:30;;;;;;;8.00;5.80;;;;;;;;;;4992019;28;20197;-74
2021/10/12 07:15:57;;;;;;;5.55;5.05;;;;;;;;;;4984473;28;20662;-75
2021/10/12 07:18:24;;;;;;;5.88;4.97;;;;;;;;;;4978976;28;20584;-75
2021/10/12 07:20:51;;;;;;;8.07;5.43;;;;;;;;;;4992253;28;20648;-75
2021/10/12 07:23:20;;;;;;;6.53;5.20;;;;;;;;;;4991467;28;20677;-75
2021/10/12 07:25:48;;;;;;;5.68;5.18;;;;;;;;;;4989614;28;20263;-75
2021/10/12 07:28:15;;;;;;;5.85;5.20;;;;;;;;;;4992760;28;20207;-74
2021/10/12 07:30:42;;;;;;;5.70;4.47;;;;;;;;;;4989468;28;20636;-76
2021/10/12 07:33:09;;;;;;;7.78;4.75;;;;;;;;;;4989492;28;20205;-75
2021/10/12 07:35:42;;;;;;;7.45;5.40;;;;;;;;;;4990882;28;20205;-77
2021/10/12 07:38:09;;;;;;;4.80;3.75;;;;;;;;;;4990243;28;20231;-74
2021/10/12 07:40:38;;;;;;;7.22;4.72;;;;;;;;;;4991522;28;20209;-74
2021/10/12 07:43:05;;;;;;;5.03;4.38;;;;;;;;;;4983873;28;20225;-74
2021/10/12 07:45:32;;;;;;;5.60;4.80;;;;;;;;;;4989606;28;20954;-74
2021/10/12 07:47:59;;;;;;;7.43;4.45;;;;;;;;;;4976358;28;20205;-74
2021/10/12 07:50:27;;;;;;;8.43;4.70;;;;;;;;;;4988531;28;20723;-75
2021/10/12 07:52:54;;;;;;;5.05;4.47;;;;;;;;;;4990289;28;20276;-73
2021/10/12 07:55:30;;;;;;;8.93;5.55;;;;;;;;;;4991806;28;20205;-75
2021/10/12 07:58:01;;;;;;;6.18;4.68;;;;;;;;;;4985808;28;20288;-73
2021/10/12 08:00:30;;;;;;;5.45;4.10;;;;;;;;;;4985225;28;20373;-73
2021/10/12 08:02:57;;;;;;;5.97;4.93;;;;;;;;;;4987221;28;20204;-73
2021/10/12 08:05:24;;;;;;;6.70;5.03;;;;;;;;;;4992309;28;20436;-73
2021/10/12 08:07:52;;;;;;;4.97;4.35;;;;;;;;;;4990419;28;20197;-73
2021/10/12 08:10:19;;;;;;;4.40;4.03;;;;;;;;;;4987900;28;20554;-73
2021/10/12 08:12:49;;;;;;;5.13;4.05;;;;;;;;;;4990422;28;20221;-73
2021/10/12 08:15:18;;;;;;;4.60;4.20;;;;;;;;;;4990253;28;20193;-74
2021/10/12 08:17:45;;;;;;;4.50;4.10;;;;;;;;;;4987839;28;20202;-74
2021/10/12 08:20:12;;;;;;;3.67;3.35;;;;;;;;;;4990847;28;20198;-74
2021/10/12 08:22:39;;;;;;;3.90;3.55;;;;;;;;;;4990252;28;20205;-74
2021/10/12 08:25:08;;;;;;;4.35;3.95;;;;;;;;;;4993204;28;20221;-74
2021/10/12 08:27:35;;;;;;;8.70;3.97;;;;;;;;;;4988342;28;20671;-74
2021/10/12 08:30:02;;;;;;;5.32;3.55;;;;;;;;;;4994155;28;20263;-75
2021/10/12 08:32:30;;;;;;;4.18;3.78;;;;;;;;;;4986118;28;20284;-75
2021/10/12 08:34:57;;;;;;;4.60;4.20;;;;;;;;;;4986874;28;20220;-76
2021/10/12 08:37:24;;;;;;;5.65;3.70;;;;;;;;;;4990521;28;20238;-75
2021/10/12 08:39:52;;;;;;;4.00;3.70;;;;;;;;;;4993168;28;20669;-75
2021/10/12 08:42:24;;;;;;;3.80;3.50;;;;;;;;;;4993402;28;20193;-75
2021/10/12 08:44:52;;;;;;;4.20;3.60;;;;;;;;;;4993196;28;20217;-76
2021/10/12 08:47:20;;;;;;;5.22;4.70;;;;;;;;;;4983746;28;20227;-76
2021/10/12 08:49:48;;;;;;;4.95;4.47;;;;;;;;;;4991756;28;20601;-75
2021/10/12 08:52:15;;;;;;;4.53;3.30;;;;;;;;;;4990738;28;20581;-75
2021/10/12 08:54:42;;;;;;;5.32;3.47;;;;;;;;;;4987761;28;20197;-75
2021/10/12 08:57:09;;;;;;;5.53;3.95;;;;;;;;;;4993459;28;20197;-74
2021/10/12 08:59:36;;;;;;;6.57;3.30;;;;;;;;;;4992570;28;20550;-75
2021/10/12 09:02:06;;;;;;;3.72;3.10;;;;;;;;;;4982028;28;20206;-74
2021/10/12 09:04:40;;;;;;;3.70;3.38;;;;;;;;;;4977246;28;20237;-75
2021/10/12 09:07:17;;;;;;;4.53;4.05;;;;;;;;;;4992093;28;20208;-75
2021/10/12 09:09:45;;;;;;;3.33;3.13;;;;;;;;;;4992409;28;20652;-76
2021/10/12 09:12:12;;;;;;;2.88;2.60;;;;;;;;;;4985807;28;20248;-76
2021/10/12 09:14:51;;;;;;;3.75;3.33;;;;;;;;;;4993335;28;20616;-75
2021/10/12 09:17:28;;;;;;;4.68;3.00;;;;;;;;;;4981583;28;20251;-74
2021/10/12 09:19:55;;;;;;;4.38;3.35;;;;;;;;;;4991905;28;20236;-76
2021/10/12 09:22:24;;;;;;;3.60;3.03;;;;;;;;;;4992648;28;20209;-75
2021/10/12 09:24:51;;;;;;;4.70;3.00;;;;;;;;;;4955275;28;1047834;-75
2021/10/12 09:27:20;;;;;;;3.95;2.90;;;;;;;;;;4994718;28;20300;-75
2021/10/12 09:29:49;;;;;;;4.20;3.90;;;;;;;;;;4991788;28;20236;-75
2021/10/12 09:32:16;;;;;;;3.78;2.63;;;;;;;;;;4989287;28;20214;-75
2021/10/12 09:34:44;;;;;;;3.00;2.80;;;;;;;;;;4992451;28;20220;-75
2021/10/12 09:37:12;;;;;;;5.45;3.17;;;;;;;;;;4992535;28;20721;-75
2021/10/12 09:39:42;;;;;;;4.20;3.80;;;;;;;;;;4989340;28;20206;-75
2021/10/12 09:42:10;;;;;;;3.05;2.85;;;;;;;;;;4993952;28;20197;-75
2021/10/12 09:44:37;;;;;;;2.97;2.75;;;;;;;;;;4993783;28;20249;-75
2021/10/12 09:47:09;;;;;;;2.72;2.50;;;;;;;;;;4993690;28;20209;-76
2021/10/12 09:49:36;;;;;;;4.32;3.55;;;;;;;;;;4990171;28;20209;-75
2021/10/12 09:52:06;;;;;;;3.50;3.20;;;;;;;;;;4992943;28;20220;-76
2021/10/12 09:54:34;;;;;;;4.55;2.97;;;;;;;;;;4975035;28;20206;-76
2021/10/12 09:57:03;;;;;;;3.10;2.80;;;;;;;;;;4991674;28;20197;-76
2021/10/12 09:59:30;;;;;;;3.35;2.83;;;;;;;;;;4990573;28;20616;-76
2021/10/12 10:01:58;;;;;;;3.78;2.70;;;;;;;;;;4980284;28;20601;-75
2021/10/12 10:04:26;;;;;;;3.65;2.53;;;;;;;;;;4993919;28;20208;-75
2021/10/12 10:06:54;;;;;;;4.22;3.05;;;;;;;;;;4994378;28;20201;-74
2021/10/12 10:09:22;;;;;;;4.22;2.65;;;;;;;;;;4989680;28;20252;-77
2021/10/12 10:11:49;;;;;;;2.63;2.42;;;;;;;;;;4985148;28;20409;-75
2021/10/12 10:14:18;;;;;;;3.25;2.95;;;;;;;;;;4994133;28;20208;-75
2021/10/12 10:16:46;;;;;;;2.78;2.58;;;;;;;;;;4992114;28;20443;-75
2021/10/12 10:19:14;;;;;;;3.25;2.55;;;;;;;;;;4992419;28;20197;-77
2021/10/12 10:21:46;;;;;;;2.72;2.53;;;;;;;;;;4992994;28;20256;-76
2021/10/12 10:24:20;;;;;;;2.33;2.10;;;;;;;;;;4992168;28;20213;-75
2021/10/12 10:26:47;;;;;;;3.42;3.05;;;;;;;;;;4990160;28;20580;-75
2021/10/12 10:29:27;;;;;;;2.88;2.67;;;;;;;;;;4992276;28;20210;-76
2021/10/12 10:31:55;;;;;;;2.90;2.60;;;;;;;;;;4988320;28;20609;-76
2021/10/12 10:34:36;;;;;;;4.25;2.28;;;;;;;;;;4992521;28;20695;-75
2021/10/12 10:37:21;;;;;;;3.60;3.30;;;;;;;;;;4991055;28;20272;-75
2021/10/12 10:39:49;;;;;;;3.88;3.08;;;;;;;;;;4985763;28;20220;-75
2021/10/12 10:42:31;;;;;;;2.50;2.30;;;;;;;;;;4988842;28;20197;-75
2021/10/12 10:45:00;;;;;;;2.40;2.20;;;;;;;;;;4973715;28;20696;-75
2021/10/12 10:47:42;;;;;;;2.25;2.05;;;;;;;;;;4984157;28;20292;-77
2021/10/12 10:50:13;;;;;;;2.33;2.13;;;;;;;;;;4991840;28;20194;-76
2021/10/12 10:52:43;;;;;;;2.10;1.90;;;;;;;;;;4990452;28;20271;-75
2021/10/12 10:55:12;;;;;;;3.13;2.10;;;;;;;;;;4993411;28;20600;-75
2021/10/12 10:57:59;;;;;;;2.40;1.90;;;;;;;;;;4992653;28;20201;-75
2021/10/12 11:00:27;;;;;;;3.22;2.65;;;;;;;;;;4991450;28;20267;-77
2021/10/12 11:02:55;;;;;;;2.88;2.45;;;;;;;;;;4985150;28;20206;-76
2021/10/12 11:05:32;;;;;;;3.10;2.45;;;;;;;;;;4993175;28;20684;-76
2021/10/12 11:08:09;;;;;;;2.95;2.38;;;;;;;;;;4988033;28;20576;-75
2021/10/12 11:10:36;;;;;;;2.45;2.05;;;;;;;;;;4989279;28;20194;-76
2021/10/12 11:13:03;;;;;;;1.90;1.80;;;;;;;;;;4991914;28;20691;-74
2021/10/12 11:15:31;;;;;;;3.67;2.15;;;;;;;;;;4980668;28;20247;-76
2021/10/12 11:18:05;;;;;;;2.35;1.90;;;;;;;;;;4991930;28;20244;-75
2021/10/12 11:20:40;;;;;;;2.45;2.25;;;;;;;;;;4991543;28;20193;-76
2021/10/12 11:23:07;;;;;;;2.08;1.90;;;;;;;;;;4983059;28;20202;-76
2021/10/12 11:25:34;;;;;;;7.43;2.45;;;;;;;;;;4978082;28;20715;-75
2021/10/12 11:28:07;;;;;;;4.63;2.45;;;;;;;;;;4973250;28;20202;-74
2021/10/12 11:30:36;;;;;;;2.75;2.17;;;;;;;;;;4991856;28;20225;-75
2021/10/12 11:33:03;;;;;;;3.25;1.70;;;;;;;;;;4973773;28;20645;-74
2021/10/12 11:35:35;;;;;;;1.70;1.60;;;;;;;;;;4990392;28;20209;-75
2021/10/12 11:38:02;;;;;;;4.28;1.67;;;;;;;;;;4991721;28;20205;-75
2021/10/12 11:40:29;;;;;;;2.00;1.40;;;;;;;;;;4990887;28;20581;-75
2021/10/12 11:42:59;;;;;;;2.17;1.40;;;;;;;;;;4991825;28;20186;-75
2021/10/12 11:45:26;;;;;;;2.00;1.90;;;;;;;;;;4992234;28;20204;-75
2021/10/12 11:47:54;;;;;;;1.80;1.70;;;;;;;;;;4981248;28;20256;-76
2021/10/12 11:50:22;;;;;;;2.45;1.25;;;;;;;;;;4989909;28;20251;-76
2021/10/12 11:52:50;;;;;;;1.73;1.63;;;;;;;;;;4978462;28;20225;-76
2021/10/12 11:55:18;;;;;;;2.08;1.80;;;;;;;;;;4987602;28;20657;-75
2021/10/12 11:57:46;;;;;;;2.35;1.42;;;;;;;;;;4991001;28;20205;-77
2021/10/12 12:00:14;;;;;;;2.08;1.63;;;;;;;;;;4975137;28;20205;-76
2021/10/12 12:02:42;;;;;;;2.00;1.63;;;;;;;;;;4990681;28;20679;-75
2021/10/12 12:05:11;;;;;;;1.42;1.33;;;;;;;;;;4988142;28;20194;-75
2021/10/12 12:07:40;;;;;;;2.28;1.63;;;;;;;;;;4978264;28;20205;-75
2021/10/12 12:10:08;;;;;;;1.30;1.10;;;;;;;;;;4990794;28;20201;-76
2021/10/12 12:12:36;;;;;;;2.35;1.40;;;;;;;;;;4981520;28;20301;-75
2021/10/12 12:15:04;;;;;;;2.00;1.42;;;;;;;;;;4988047;28;20292;-76
2021/10/12 12:17:32;;;;;;;2.05;1.20;;;;;;;;;;4972936;28;20586;-76
2021/10/12 12:20:00;;;;;;;1.48;1.35;;;;;;;;;;4979486;28;20683;-76
2021/10/12 12:22:29;;;;;;;1.73;1.50;;;;;;;;;;4988184;28;20547;-75
2021/10/12 12:24:57;;;;;;;1.45;1.13;;;;;;;;;;4991287;28;20209;-74
2021/10/12 12:27:24;;;;;;;1.77;1.20;;;;;;;;;;4983071;28;20210;-75
2021/10/12 12:29:58;;;;;;;1.40;1.27;;;;;;;;;;4990845;28;20573;-75
2021/10/12 12:32:25;;;;;;;1.50;1.23;;;;;;;;;;4989714;28;20214;-75
2021/10/12 12:34:59;;;;;;;1.20;1.00;;;;;;;;;;4990618;28;20201;-75
2021/10/12 12:37:27;;;;;;;5.43;1.70;;;;;;;;;;4991334;28;20564;-75
2021/10/12 12:39:55;;;;;;;1.42;1.10;;;;;;;;;;4991753;28;20213;-74
2021/10/12 12:42:33;;;;;;;1.30;1.10;;;;;;;;;;4990731;28;20198;-75
2021/10/12 12:45:07;;;;;;;1.75;1.40;;;;;;;;;;4972516;28;20670;-76
2021/10/12 12:47:34;;;;;;;1.75;1.15;;;;;;;;;;4972888;28;20202;-75
2021/10/12 12:50:07;;;;;;;1.05;0.90;;;;;;;;;;4985164;28;20228;-75
2021/10/12 12:52:34;;;;;;;1.38;1.27;;;;;;;;;;4987420;28;20558;-75
2021/10/12 12:55:03;;;;;;;3.25;1.23;;;;;;;;;;4991614;28;20230;-75
2021/10/12 12:57:30;;;;;;;1.95;1.63;;;;;;;;;;4991588;28;20711;-75
2021/10/12 13:00:02;;;;;;;2.10;1.27;;;;;;;;;;4991367;28;20197;-75
2021/10/12 13:02:29;;;;;;;1.20;1.00;;;;;;;;;;4990124;28;20225;-76
2021/10/12 13:04:57;;;;;;;1.55;1.02;;;;;;;;;;4989811;28;20685;-76
2021/10/12 13:07:24;;;;;;;2.75;1.45;;;;;;;;;;4990388;28;20202;-76
2021/10/12 13:09:52;;;;;;;4.50;1.33;;;;;;;;;;4994406;28;20228;-75
2021/10/12 13:12:21;;;;;;;3.58;1.10;;;;;;;;;;4994179;28;20209;-75
2021/10/12 13:14:49;;;;;;;1.73;0.90;;;;;;;;;;4993076;28;20224;-75
2021/10/12 13:17:19;;;;;;;1.52;1.10;;;;;;;;;;4990859;28;20194;-75
2021/10/12 13:19:46;;;;;;;3.15;1.00;;;;;;;;;;4993180;28;20193;-75
2021/10/12 13:22:15;;;;;;;2.22;0.90;;;;;;;;;;4992232;28;20460;-75
2021/10/12 13:24:42;;;;;;;2.83;1.15;;;;;;;;;;4994449;28;20212;-75
2021/10/12 13:27:09;;;;;;;1.98;1.27;;;;;;;;;;4995207;28;20679;-77
2021/10/12 13:29:37;;;;;;;4.18;1.40;;;;;;;;;;4994494;28;20216;-76
2021/10/12 13:32:05;;;;;;;1.67;1.10;;;;;;;;;;4992386;28;20201;-76
2021/10/12 13:34:32;;;;;;;1.33;0.90;;;;;;;;;;4994721;28;20624;-77
2021/10/12 13:37:00;;;;;;;1.75;1.40;;;;;;;;;;4993331;28;20193;-76
2021/10/12 13:39:27;;;;;;;1.08;0.90;;;;;;;;;;4992009;28;20197;-76
2021/10/12 13:41:55;;;;;;;6.78;1.30;;;;;;;;;;4992877;28;20225;-75
2021/10/12 13:44:22;;;;;;;1.65;1.02;;;;;;;;;;4993781;28;20325;-76
2021/10/12 13:46:50;;;;;;;1.20;0.90;;;;;;;;;;4993835;28;20206;-77
2021/10/12 13:49:18;;;;;;;1.40;1.00;;;;;;;;;;4994497;28;20208;-76
2021/10/12 13:51:45;;;;;;;3.10;1.20;;;;;;;;;;4992899;28;20209;-77
2021/10/12 13:54:12;;;;;;;1.33;1.13;;;;;;;;;;4993839;28;20214;-77
2021/10/12 13:56:39;;;;;;;1.92;0.80;;;;;;;;;;4992630;28;20206;-75
2021/10/12 13:59:06;;;;;;;2.35;1.30;;;;;;;;;;4994070;28;20202;-76
2021/10/12 14:01:33;;;;;;;1.10;0.90;;;;;;;;;;4992287;28;20661;-76
2021/10/12 14:04:01;;;;;;;1.30;0.90;;;;;;;;;;4993122;28;20197;-76
2021/10/12 14:06:28;;;;;;;2.40;0.90;;;;;;;;;;4993401;28;20216;-75
2021/10/12 14:08:55;;;;;;;2.13;1.45;;;;;;;;;;4991855;28;20688;-76
2021/10/12 14:11:22;;;;;;;2.40;0.80;;;;;;;;;;4992854;28;20205;-76
2021/10/12 14:13:49;;;;;;;2.50;1.10;;;;;;;;;;4992161;28;20692;-76
2021/10/12 14:16:16;;;;;;;2.33;1.10;;;;;;;;;;4989800;28;20202;-76
2021/10/12 14:18:43;;;;;;;2.25;1.02;;;;;;;;;;4989517;28;20194;-76
2021/10/12 14:21:12;;;;;;;2.08;1.20;;;;;;;;;;4991286;28;20248;-75
2021/10/12 14:23:39;;;;;;;1.42;1.33;;;;;;;;;;4992637;28;20724;-76
2021/10/12 14:26:06;;;;;;;3.10;1.35;;;;;;;;;;4993459;28;20201;-76
2021/10/12 14:28:33;;;;;;;2.80;1.00;;;;;;;;;;4992522;28;20205;-76
2021/10/12 14:31:00;;;;;;;7.85;1.52;;;;;;;;;;4980593;28;20223;-77
2021/10/12 14:33:27;;;;;;;4.38;1.20;;;;;;;;;;4990001;28;20225;-76
2021/10/12 14:36:00;;;;;;;1.20;1.10;;;;;;;;;;4993435;28;20197;-77
2021/10/12 14:38:30;;;;;;;1.05;0.95;;;;;;;;;;4993305;28;20699;-76
2021/10/12 14:40:57;;;;;;;2.00;1.25;;;;;;;;;;4993437;28;20202;-75
2021/10/12 14:43:24;;;;;;;1.70;1.15;;;;;;;;;;4992850;28;20329;-76
2021/10/12 14:45:51;;;;;;;1.70;0.98;;;;;;;;;;4987512;28;20190;-77
2021/10/12 14:48:19;;;;;;;1.75;1.00;;;;;;;;;;4974830;28;20210;-77